^^
Saratoga-Weather Station Historical Data
Daily Summary for September 28, 2020 Units:  Both    English   Metric
Daily Weekly Monthly Yearly Custom
  High: Low: Average:
Temperature: 47.5 °F /  8.6 °C 31.6 °F /  -0.2 °C 38.1 °F /  3.4 °C
Dew Point: 36.1 °F /  2.3 °C 29.5 °F /  -1.4 °C 32.7 °F /  0.4 °C
Humidity: 94% 58% 82%
Wind Speed: 13mph /  20.9km/h - 3.5mph /  5.6km/h
Wind Gust: 23mph /  37km/h - -
Wind- - WSW
Pressure: 30.1 in /  1020.7 hPa 29.9 in /  1012.9 hPa -
Precipitation: 0.01 in /  0.2 mm    
Historical Graphs
 
 
Tabular Data for September 28, 2020
Time Temperature Dew Point Pressure Wind Wind Speed Wind Gust Humidity Rainfall Rate (Hourly) solar
00:01 36.7 °F /  2.6 °C 33.4 °F /  0.8 °C 29.9in /  1012.9hPa WNW 11mph /  17.7km/h 23mph /  37km/h 88% 0in /  0.0mm 0 W/m2
00:06 36.7 °F /  2.6 °C 33.4 °F /  0.8 °C 29.9in /  1012.9hPa West 8.1mph /  13km/h 14mph /  22.5km/h 88% 0in /  0.0mm 0 W/m2
00:11 36.7 °F /  2.6 °C 33.4 °F /  0.8 °C 29.9in /  1012.9hPa WSW 8.1mph /  13km/h 17mph /  27.4km/h 88% 0in /  0.0mm 0 W/m2
00:16 36.7 °F /  2.6 °C 33.8 °F /  1 °C 29.9in /  1013.2hPa WNW 11mph /  17.7km/h 17mph /  27.4km/h 89% 0in /  0.0mm 0 W/m2
00:21 36.5 °F /  2.5 °C 33.6 °F /  0.9 °C 29.9in /  1013.2hPa WSW 6.9mph /  11.1km/h 11mph /  17.7km/h 89% 0in /  0.0mm 0 W/m2
00:26 36.3 °F /  2.4 °C 33.4 °F /  0.8 °C 29.9in /  1013.2hPa WNW 6.9mph /  11.1km/h 17mph /  27.4km/h 89% 0in /  0.0mm 0 W/m2
00:32 36.3 °F /  2.4 °C 33.4 °F /  0.8 °C 29.9in /  1013.2hPa SW 10.1mph /  16.3km/h 10mph /  16.1km/h 89% 0in /  0.0mm 0 W/m2
00:37 36.3 °F /  2.4 °C 33.4 °F /  0.8 °C 29.9in /  1013.2hPa WSW 12.1mph /  19.5km/h 14mph /  22.5km/h 89% 0in /  0.0mm 0 W/m2
00:42 36.1 °F /  2.3 °C 33.3 °F /  0.7 °C 29.9in /  1013.5hPa WNW 10.1mph /  16.3km/h 11mph /  17.7km/h 89% 0in /  0.0mm 0 W/m2
00:47 36.1 °F /  2.3 °C 33.3 °F /  0.7 °C 29.9in /  1013.5hPa West 8.1mph /  13km/h 14mph /  22.5km/h 89% 0in /  0.0mm 0 W/m2
00:52 36.1 °F /  2.3 °C 33.3 °F /  0.7 °C 29.9in /  1013.5hPa WNW 4mph /  6.4km/h 10mph /  16.1km/h 89% 0in /  0.0mm 0 W/m2
00:57 36.1 °F /  2.3 °C 33.4 °F /  0.8 °C 29.9in /  1013.9hPa West 8.1mph /  13km/h 14mph /  22.5km/h 90% 0in /  0.0mm 0 W/m2
01:02 36.1 °F /  2.3 °C 33.3 °F /  0.7 °C 30in /  1014.2hPa WSW 8.1mph /  13km/h 10mph /  16.1km/h 89% 0in /  0.0mm 0 W/m2
01:07 36.1 °F /  2.3 °C 33.4 °F /  0.8 °C 30in /  1014.6hPa West 8.1mph /  13km/h 14mph /  22.5km/h 90% 0in /  0.0mm 0 W/m2
01:12 36.1 °F /  2.3 °C 33.4 °F /  0.8 °C 30in /  1014.6hPa SW 10.1mph /  16.3km/h 10mph /  16.1km/h 90% 0in /  0.0mm 0 W/m2
01:17 36 °F /  2.2 °C 33.3 °F /  0.7 °C 30in /  1014.9hPa WSW 10.1mph /  16.3km/h 14mph /  22.5km/h 90% 0in /  0.0mm 0 W/m2
01:22 36 °F /  2.2 °C 33.3 °F /  0.7 °C 30in /  1014.9hPa West 6.9mph /  11.1km/h 9mph /  14.5km/h 90% 0in /  0.0mm 0 W/m2
01:27 36 °F /  2.2 °C 33.1 °F /  0.6 °C 30in /  1015.2hPa WSW 8.1mph /  13km/h 13mph /  20.9km/h 89% 0in /  0.0mm 0 W/m2
01:32 36 °F /  2.2 °C 33.3 °F /  0.7 °C 30in /  1015.2hPa West 4mph /  6.4km/h 8mph /  12.9km/h 90% 0in /  0.0mm 0 W/m2
01:37 35.8 °F /  2.1 °C 32.9 °F /  0.5 °C 30in /  1015.2hPa West 2.9mph /  4.7km/h 12mph /  19.3km/h 89% 0in /  0.0mm 0 W/m2
01:42 35.8 °F /  2.1 °C 33.1 °F /  0.6 °C 30in /  1015.2hPa West 4mph /  6.4km/h 8mph /  12.9km/h 90% 0in /  0.0mm 0 W/m2
01:47 35.8 °F /  2.1 °C 33.1 °F /  0.6 °C 30in /  1015.6hPa WNW 6mph /  9.7km/h 10mph /  16.1km/h 90% 0in /  0.0mm 0 W/m2
01:52 35.8 °F /  2.1 °C 33.1 °F /  0.6 °C 30in /  1015.6hPa WNW 4mph /  6.4km/h 7mph /  11.3km/h 90% 0in /  0.0mm 0 W/m2
01:57 35.8 °F /  2.1 °C 32.9 °F /  0.5 °C 30in /  1015.9hPa SW 2mph /  3.2km/h 10mph /  16.1km/h 89% 0in /  0.0mm 0 W/m2
02:02 35.8 °F /  2.1 °C 32.9 °F /  0.5 °C 30in /  1016.3hPa West 6mph /  9.7km/h 8mph /  12.9km/h 89% 0in /  0.0mm 0 W/m2
02:07 35.8 °F /  2.1 °C 32.9 °F /  0.5 °C 30in /  1016.3hPa West 4mph /  6.4km/h 9mph /  14.5km/h 89% 0in /  0.0mm 0 W/m2
02:12 35.8 °F /  2.1 °C 32.9 °F /  0.5 °C 30in /  1016.3hPa West 4mph /  6.4km/h 9mph /  14.5km/h 89% 0in /  0.0mm 0 W/m2
02:17 35.8 °F /  2.1 °C 32.9 °F /  0.5 °C 30in /  1016.3hPa WNW 2.9mph /  4.7km/h 11mph /  17.7km/h 89% 0in /  0.0mm 0 W/m2
02:22 35.8 °F /  2.1 °C 32.9 °F /  0.5 °C 30in /  1016.3hPa NW 6mph /  9.7km/h 10mph /  16.1km/h 89% 0in /  0.0mm 0 W/m2
02:27 35.8 °F /  2.1 °C 32.9 °F /  0.5 °C 30in /  1016.3hPa WNW 4mph /  6.4km/h 6mph /  9.7km/h 89% 0in /  0.0mm 0 W/m2
02:32 35.6 °F /  2 °C 32.4 °F /  0.2 °C 30in /  1016.3hPa West 4mph /  6.4km/h 8mph /  12.9km/h 88% 0in /  0.0mm 0 W/m2
02:37 35.4 °F /  1.9 °C 32.2 °F /  0.1 °C 30in /  1016.3hPa West 6.9mph /  11.1km/h 7mph /  11.3km/h 88% 0in /  0.0mm 0 W/m2
02:42 35.2 °F /  1.8 °C 32.4 °F /  0.2 °C 30in /  1016.3hPa West 2.9mph /  4.7km/h 7mph /  11.3km/h 89% 0in /  0.0mm 0 W/m2
02:47 35.2 °F /  1.8 °C 32.4 °F /  0.2 °C 30in /  1016.3hPa West 4mph /  6.4km/h 7mph /  11.3km/h 89% 0in /  0.0mm 0 W/m2
02:52 35.1 °F /  1.7 °C 32.2 °F /  0.1 °C 30in /  1016.3hPa West 2.9mph /  4.7km/h 11mph /  17.7km/h 89% 0in /  0.0mm 0 W/m2
02:57 35.1 °F /  1.7 °C 32.2 °F /  0.1 °C 30in /  1016.6hPa WSW 4mph /  6.4km/h 7mph /  11.3km/h 89% 0in /  0.0mm 0 W/m2
03:02 35.1 °F /  1.7 °C 32.2 °F /  0.1 °C 30in /  1016.6hPa West 2mph /  3.2km/h 7mph /  11.3km/h 89% 0in /  0.0mm 0 W/m2
03:07 35.1 °F /  1.7 °C 32.2 °F /  0.1 °C 30in /  1016.6hPa West 2.9mph /  4.7km/h 12mph /  19.3km/h 89% 0in /  0.0mm 0 W/m2
03:12 35.1 °F /  1.7 °C 32.2 °F /  0.1 °C 30in /  1016.6hPa West 6.9mph /  11.1km/h 10mph /  16.1km/h 89% 0in /  0.0mm 0 W/m2
03:17 35.1 °F /  1.7 °C 32.2 °F /  0.1 °C 30in /  1016.6hPa WNW 2.9mph /  4.7km/h 9mph /  14.5km/h 89% 0in /  0.0mm 0 W/m2
03:22 35.1 °F /  1.7 °C 32.2 °F /  0.1 °C 30in /  1016.6hPa WNW 4mph /  6.4km/h 9mph /  14.5km/h 89% 0in /  0.0mm 0 W/m2
03:27 35.1 °F /  1.7 °C 31.8 °F /  -0.1 °C 30in /  1016.6hPa West 2mph /  3.2km/h 7mph /  11.3km/h 88% 0in /  0.0mm 0 W/m2
03:32 34.9 °F /  1.6 °C 31.6 °F /  -0.2 °C 30in /  1016.6hPa South 0.9mph /  1.4km/h 3mph /  4.8km/h 88% 0in /  0.0mm 0 W/m2
03:37 34.7 °F /  1.5 °C 31.8 °F /  -0.1 °C 30in /  1016.9hPa WSW 4.9mph /  7.9km/h 8mph /  12.9km/h 89% 0in /  0.0mm 0 W/m2
03:42 34.7 °F /  1.5 °C 31.8 °F /  -0.1 °C 30in /  1016.9hPa WNW 4mph /  6.4km/h 10mph /  16.1km/h 89% 0in /  0.0mm 0 W/m2
03:47 34.5 °F /  1.4 °C 31.6 °F /  -0.2 °C 30in /  1016.9hPa WSW 2mph /  3.2km/h 7mph /  11.3km/h 89% 0in /  0.0mm 0 W/m2
03:52 34.5 °F /  1.4 °C 31.6 °F /  -0.2 °C 30in /  1016.9hPa WSW 4mph /  6.4km/h 10mph /  16.1km/h 89% 0in /  0.0mm 0 W/m2
03:57 34.3 °F /  1.3 °C 31.5 °F /  -0.3 °C 30in /  1016.9hPa West 2.9mph /  4.7km/h 9mph /  14.5km/h 89% 0in /  0.0mm 0 W/m2
04:02 34.3 °F /  1.3 °C 31.5 °F /  -0.3 °C 30in /  1016.9hPa SW 2mph /  3.2km/h 8mph /  12.9km/h 89% 0in /  0.0mm 0 W/m2
04:07 34.3 °F /  1.3 °C 31.5 °F /  -0.3 °C 30in /  1017.3hPa West 2.9mph /  4.7km/h 9mph /  14.5km/h 89% 0in /  0.0mm 0 W/m2
04:12 34.2 °F /  1.2 °C 31.3 °F /  -0.4 °C 30in /  1017.3hPa West 2.9mph /  4.7km/h 8mph /  12.9km/h 89% 0in /  0.0mm 0 W/m2
04:17 34.2 °F /  1.2 °C 31.3 °F /  -0.4 °C 30in /  1017.3hPa West 6mph /  9.7km/h 11mph /  17.7km/h 89% 0in /  0.0mm 0 W/m2
04:22 34.2 °F /  1.2 °C 31.3 °F /  -0.4 °C 30in /  1017.3hPa West 2mph /  3.2km/h 9mph /  14.5km/h 89% 0in /  0.0mm 0 W/m2
04:27 34.2 °F /  1.2 °C 31.3 °F /  -0.4 °C 30in /  1017.3hPa SW 4mph /  6.4km/h 8mph /  12.9km/h 89% 0in /  0.0mm 0 W/m2
04:32 34.2 °F /  1.2 °C 31.3 °F /  -0.4 °C 30.1in /  1017.6hPa WNW 4mph /  6.4km/h 4mph /  6.4km/h 89% 0in /  0.0mm 0 W/m2
04:37 34.2 °F /  1.2 °C 31.3 °F /  -0.4 °C 30.1in /  1017.6hPa West 4mph /  6.4km/h 7mph /  11.3km/h 89% 0in /  0.0mm 0 W/m2
04:42 34 °F /  1.1 °C 31.1 °F /  -0.5 °C 30.1in /  1017.6hPa West 8.1mph /  13km/h 9mph /  14.5km/h 89% 0in /  0.0mm 0 W/m2
04:47 34 °F /  1.1 °C 31.1 °F /  -0.5 °C 30.1in /  1017.6hPa WSW 6.9mph /  11.1km/h 9mph /  14.5km/h 89% 0in /  0.0mm 0 W/m2
04:52 34 °F /  1.1 °C 31.3 °F /  -0.4 °C 30.1in /  1017.6hPa West 4mph /  6.4km/h 5mph /  8km/h 90% 0in /  0.0mm 0 W/m2
04:57 34 °F /  1.1 °C 31.1 °F /  -0.5 °C 30.1in /  1017.6hPa West 2.9mph /  4.7km/h 4mph /  6.4km/h 89% 0in /  0.0mm 0 W/m2
05:02 33.8 °F /  1 °C 31.1 °F /  -0.5 °C 30.1in /  1018.0hPa West 2.9mph /  4.7km/h 7mph /  11.3km/h 90% 0in /  0.0mm 0 W/m2
05:07 33.6 °F /  0.9 °C 30.9 °F /  -0.6 °C 30.1in /  1018.0hPa WSW 4.9mph /  7.9km/h 6mph /  9.7km/h 90% 0in /  0.0mm 0 W/m2
05:12 33.6 °F /  0.9 °C 30.9 °F /  -0.6 °C 30.1in /  1018.0hPa WNW 6mph /  9.7km/h 6mph /  9.7km/h 90% 0in /  0.0mm 0 W/m2
05:17 33.6 °F /  0.9 °C 30.9 °F /  -0.6 °C 30.1in /  1018.0hPa West 2mph /  3.2km/h 8mph /  12.9km/h 90% 0in /  0.0mm 0 W/m2
05:22 33.4 °F /  0.8 °C 30.7 °F /  -0.7 °C 30.1in /  1018.0hPa West 4mph /  6.4km/h 6mph /  9.7km/h 90% 0in /  0.0mm 0 W/m2
05:27 33.4 °F /  0.8 °C 30.7 °F /  -0.7 °C 30.1in /  1018.3hPa West 2.9mph /  4.7km/h 5mph /  8km/h 90% 0in /  0.0mm 0 W/m2
05:32 33.4 °F /  0.8 °C 30.7 °F /  -0.7 °C 30.1in /  1018.3hPa West 6mph /  9.7km/h 9mph /  14.5km/h 90% 0in /  0.0mm 0 W/m2
05:37 33.3 °F /  0.7 °C 30.6 °F /  -0.8 °C 30.1in /  1018.3hPa West 13mph /  20.9km/h 13mph /  20.9km/h 90% 0in /  0.0mm 0 W/m2
05:42 33.3 °F /  0.7 °C 30.6 °F /  -0.8 °C 30.1in /  1018.3hPa WNW 6.9mph /  11.1km/h 10mph /  16.1km/h 90% 0in /  0.0mm 0 W/m2
05:47 33.3 °F /  0.7 °C 30.6 °F /  -0.8 °C 30.1in /  1018.3hPa West 2mph /  3.2km/h 6mph /  9.7km/h 90% 0in /  0.0mm 0 W/m2
05:52 33.3 °F /  0.7 °C 30.6 °F /  -0.8 °C 30.1in /  1018.6hPa WSW 4mph /  6.4km/h 8mph /  12.9km/h 90% 0in /  0.0mm 0 W/m2
05:57 33.3 °F /  0.7 °C 30.6 °F /  -0.8 °C 30.1in /  1018.6hPa West 6mph /  9.7km/h 9mph /  14.5km/h 90% 0in /  0.0mm 0 W/m2
06:02 33.3 °F /  0.7 °C 30.6 °F /  -0.8 °C 30.1in /  1018.6hPa NNW 2mph /  3.2km/h 9mph /  14.5km/h 90% 0in /  0.0mm 0 W/m2
06:07 33.3 °F /  0.7 °C 30.6 °F /  -0.8 °C 30.1in /  1018.6hPa West 6mph /  9.7km/h 11mph /  17.7km/h 90% 0in /  0.0mm 0 W/m2
06:12 33.4 °F /  0.8 °C 30.7 °F /  -0.7 °C 30.1in /  1018.6hPa West 2.9mph /  4.7km/h 7mph /  11.3km/h 90% 0in /  0.0mm 0 W/m2
06:17 33.4 °F /  0.8 °C 30.7 °F /  -0.7 °C 30.1in /  1018.6hPa WNW 4mph /  6.4km/h 7mph /  11.3km/h 90% 0in /  0.0mm 0 W/m2
06:22 33.4 °F /  0.8 °C 30.7 °F /  -0.7 °C 30.1in /  1019.0hPa WNW 2.9mph /  4.7km/h 7mph /  11.3km/h 90% 0in /  0.0mm 0 W/m2
06:27 33.4 °F /  0.8 °C 30.7 °F /  -0.7 °C 30.1in /  1019.0hPa NW 2.9mph /  4.7km/h 4mph /  6.4km/h 90% 0in /  0.0mm 0 W/m2
06:32 33.3 °F /  0.7 °C 30.6 °F /  -0.8 °C 30.1in /  1019.0hPa NW 2.9mph /  4.7km/h 5mph /  8km/h 90% 0in /  0.0mm 0 W/m2
06:37 33.1 °F /  0.6 °C 30.4 °F /  -0.9 °C 30.1in /  1019.0hPa WNW 2mph /  3.2km/h 5mph /  8km/h 90% 0in /  0.0mm 0 W/m2
06:42 32.9 °F /  0.5 °C 30.4 °F /  -0.9 °C 30.1in /  1019.0hPa WNW 2.9mph /  4.7km/h 3mph /  4.8km/h 90% 0in /  0.0mm 0 W/m2
06:48 32.7 °F /  0.4 °C 30.2 °F /  -1 °C 30.1in /  1019.0hPa WNW 2.9mph /  4.7km/h 3mph /  4.8km/h 90% 0in /  0.0mm 0 W/m2
06:53 32.5 °F /  0.3 °C 30.2 °F /  -1 °C 30.1in /  1019.0hPa WNW 2mph /  3.2km/h 3mph /  4.8km/h 91% 0in /  0.0mm 0 W/m2
06:58 32.5 °F /  0.3 °C 30.2 °F /  -1 °C 30.1in /  1019.0hPa WNW 2.9mph /  4.7km/h 6mph /  9.7km/h 91% 0in /  0.0mm 0 W/m2
07:03 32.7 °F /  0.4 °C 30.4 °F /  -0.9 °C 30.1in /  1019.0hPa West 4mph /  6.4km/h 6mph /  9.7km/h 91% 0in /  0.0mm 0 W/m2
07:08 32.9 °F /  0.5 °C 30.6 °F /  -0.8 °C 30.1in /  1019.0hPa West 2mph /  3.2km/h 9mph /  14.5km/h 91% 0in /  0.0mm 0 W/m2
07:13 33.1 °F /  0.6 °C 30.7 °F /  -0.7 °C 30.1in /  1019.3hPa SW 2mph /  3.2km/h 4mph /  6.4km/h 91% 0in /  0.0mm 0 W/m2
07:18 33.1 °F /  0.6 °C 30.7 °F /  -0.7 °C 30.1in /  1019.3hPa Calm   2mph /  3.2km/h 91% 0in /  0.0mm 0 W/m2
07:23 33.1 °F /  0.6 °C 30.7 °F /  -0.7 °C 30.1in /  1019.3hPa South 2mph /  3.2km/h 2mph /  3.2km/h 91% 0in /  0.0mm 5 W/m2
07:28 32.7 °F /  0.4 °C 30.4 °F /  -0.9 °C 30.1in /  1019.3hPa SSW 0.9mph /  1.4km/h 1mph /  1.6km/h 91% 0in /  0.0mm 7 W/m2
07:33 32.5 °F /  0.3 °C 30 °F /  -1.1 °C 30.1in /  1019.3hPa SSW 0.9mph /  1.4km/h 2mph /  3.2km/h 90% 0in /  0.0mm 12 W/m2
07:38 32.2 °F /  0.1 °C 29.8 °F /  -1.2 °C 30.1in /  1019.3hPa Calm   1mph /  1.6km/h 91% 0in /  0.0mm 14 W/m2
07:43 32 °F /  0 °C 29.7 °F /  -1.3 °C 30.1in /  1019.3hPa Calm     91% 0in /  0.0mm 18 W/m2
07:48 31.8 °F /  -0.1 °C 29.5 °F /  -1.4 °C 30.1in /  1019.6hPa SSW 0.9mph /  1.4km/h 2mph /  3.2km/h 91% 0in /  0.0mm 21 W/m2
07:53 31.6 °F /  -0.2 °C 29.7 °F /  -1.3 °C 30.1in /  1019.6hPa SSW 0.9mph /  1.4km/h 2mph /  3.2km/h 92% 0in /  0.0mm 23 W/m2
07:58 31.6 °F /  -0.2 °C 29.7 °F /  -1.3 °C 30.1in /  1019.6hPa Calm     92% 0in /  0.0mm 30 W/m2
08:03 31.6 °F /  -0.2 °C 29.7 °F /  -1.3 °C 30.1in /  1020.0hPa South 2mph /  3.2km/h 2mph /  3.2km/h 92% 0in /  0.0mm 33 W/m2
08:08 31.6 °F /  -0.2 °C 29.8 °F /  -1.2 °C 30.1in /  1020.0hPa SSE 0.9mph /  1.4km/h 3mph /  4.8km/h 93% 0in /  0.0mm 39 W/m2
08:13 31.8 °F /  -0.1 °C 30 °F /  -1.1 °C 30.1in /  1020.0hPa SE 0.9mph /  1.4km/h 2mph /  3.2km/h 93% 0in /  0.0mm 46 W/m2
08:18 32.2 °F /  0.1 °C 30.4 °F /  -0.9 °C 30.1in /  1020.0hPa SE 2mph /  3.2km/h 2mph /  3.2km/h 93% 0in /  0.0mm 44 W/m2
08:23 32.4 °F /  0.2 °C 30.6 °F /  -0.8 °C 30.1in /  1020.0hPa ESE 0.9mph /  1.4km/h 2mph /  3.2km/h 93% 0in /  0.0mm 49 W/m2
08:28 32.5 °F /  0.3 °C 30.7 °F /  -0.7 °C 30.1in /  1020.0hPa Calm   2mph /  3.2km/h 93% 0in /  0.0mm 46 W/m2
08:33 32.7 °F /  0.4 °C 30.9 °F /  -0.6 °C 30.1in /  1020.3hPa East 0.9mph /  1.4km/h 1mph /  1.6km/h 93% 0in /  0.0mm 54 W/m2
08:38 33.1 °F /  0.6 °C 31.5 °F /  -0.3 °C 30.1in /  1020.3hPa West 2mph /  3.2km/h 4mph /  6.4km/h 94% 0in /  0.0mm 47 W/m2
08:43 33.3 °F /  0.7 °C 31.5 °F /  -0.3 °C 30.1in /  1020.7hPa Calm   6mph /  9.7km/h 93% 0in /  0.0mm 104 W/m2
08:48 33.6 °F /  0.9 °C 31.8 °F /  -0.1 °C 30.1in /  1020.7hPa SSW 0.9mph /  1.4km/h 1mph /  1.6km/h 93% 0in /  0.0mm 144 W/m2
08:53 34 °F /  1.1 °C 32.2 °F /  0.1 °C 30.1in /  1020.7hPa ENE 4mph /  6.4km/h 6mph /  9.7km/h 93% 0in /  0.0mm 153 W/m2
08:58 34.3 °F /  1.3 °C 32.5 °F /  0.3 °C 30.1in /  1020.7hPa NE 0.9mph /  1.4km/h 1mph /  1.6km/h 93% 0in /  0.0mm 163 W/m2
09:03 34.7 °F /  1.5 °C 32.5 °F /  0.3 °C 30.1in /  1020.7hPa Calm   2mph /  3.2km/h 92% 0in /  0.0mm 181 W/m2
09:08 35.2 °F /  1.8 °C 33.1 °F /  0.6 °C 30.1in /  1020.7hPa WSW 2.9mph /  4.7km/h 4mph /  6.4km/h 92% 0in /  0.0mm 185 W/m2
09:13 35.2 °F /  1.8 °C 32.5 °F /  0.3 °C 30.1in /  1020.7hPa NNW 0.9mph /  1.4km/h 7mph /  11.3km/h 90% 0in /  0.0mm 86 W/m2
09:18 35.4 °F /  1.9 °C 32.7 °F /  0.4 °C 30.1in /  1020.7hPa NE 4mph /  6.4km/h 4mph /  6.4km/h 90% 0in /  0.0mm 123 W/m2
09:23 35.8 °F /  2.1 °C 33.1 °F /  0.6 °C 30.1in /  1020.7hPa Calm   7mph /  11.3km/h 90% 0in /  0.0mm 185 W/m2
09:28 36.1 °F /  2.3 °C 33.3 °F /  0.7 °C 30.1in /  1020.7hPa WSW 2.9mph /  4.7km/h 3mph /  4.8km/h 89% 0in /  0.0mm 74 W/m2
09:33 36.3 °F /  2.4 °C 33.4 °F /  0.8 °C 30.1in /  1020.7hPa NNW 2mph /  3.2km/h 3mph /  4.8km/h 89% 0in /  0.0mm 258 W/m2
09:38 36.9 °F /  2.7 °C 33.6 °F /  0.9 °C 30.1in /  1020.7hPa NE 0.9mph /  1.4km/h 2mph /  3.2km/h 88% 0in /  0.0mm 264 W/m2
09:43 37 °F /  2.8 °C 33.8 °F /  1 °C 30.1in /  1020.7hPa Calm   2mph /  3.2km/h 88% 0in /  0.0mm 269 W/m2
09:48 37.6 °F /  3.1 °C 34 °F /  1.1 °C 30.1in /  1020.3hPa West 4mph /  6.4km/h 4mph /  6.4km/h 87% 0in /  0.0mm 283 W/m2
09:53 37.6 °F /  3.1 °C 34 °F /  1.1 °C 30.1in /  1020.3hPa WNW 0.9mph /  1.4km/h 3mph /  4.8km/h 87% 0in /  0.0mm 290 W/m2
09:58 37.9 °F /  3.3 °C 34.2 °F /  1.2 °C 30.1in /  1020.3hPa Calm   3mph /  4.8km/h 86% 0in /  0.0mm 313 W/m2
10:03 38.5 °F /  3.6 °C 34.7 °F /  1.5 °C 30.1in /  1020.3hPa North 2mph /  3.2km/h 2mph /  3.2km/h 86% 0in /  0.0mm 313 W/m2
10:08 38.7 °F /  3.7 °C 34.2 °F /  1.2 °C 30.1in /  1020.3hPa West 2.9mph /  4.7km/h 6mph /  9.7km/h 84% 0in /  0.0mm 345 W/m2
10:13 38.7 °F /  3.7 °C 34.5 °F /  1.4 °C 30.1in /  1020.0hPa WNW 0.9mph /  1.4km/h 2mph /  3.2km/h 85% 0in /  0.0mm 357 W/m2
10:18 38.8 °F /  3.8 °C 34.3 °F /  1.3 °C 30.1in /  1020.0hPa Calm   4mph /  6.4km/h 84% 0in /  0.0mm 345 W/m2
10:28 39.9 °F /  4.4 °C 34.9 °F /  1.6 °C 30.1in /  1020.0hPa SSW 0.9mph /  1.4km/h 3mph /  4.8km/h 82% 0in /  0.0mm 309 W/m2
10:33 40.1 °F /  4.5 °C 35.1 °F /  1.7 °C 30.1in /  1020.0hPa NNW 0.9mph /  1.4km/h 4mph /  6.4km/h 82% 0in /  0.0mm 316 W/m2
10:38 40.1 °F /  4.5 °C 34.7 °F /  1.5 °C 30.1in /  1020.0hPa NW 0.9mph /  1.4km/h 5mph /  8km/h 81% 0in /  0.0mm 271 W/m2
10:43 39.9 °F /  4.4 °C 34.5 °F /  1.4 °C 30.1in /  1020.0hPa WNW 6.9mph /  11.1km/h 8mph /  12.9km/h 81% 0in /  0.0mm 290 W/m2
10:49 39.9 °F /  4.4 °C 34.5 °F /  1.4 °C 30.1in /  1019.6hPa NNW 2mph /  3.2km/h 4mph /  6.4km/h 81% 0in /  0.0mm 302 W/m2
10:54 40.1 °F /  4.5 °C 34.7 °F /  1.5 °C 30.1in /  1019.6hPa WNW 2mph /  3.2km/h 5mph /  8km/h 81% 0in /  0.0mm 283 W/m2
10:59 40.3 °F /  4.6 °C 35.2 °F /  1.8 °C 30.1in /  1020.0hPa East 2.9mph /  4.7km/h 3mph /  4.8km/h 82% 0in /  0.0mm 309 W/m2
11:04 40.8 °F /  4.9 °C 35.1 °F /  1.7 °C 30.1in /  1019.6hPa East 6mph /  9.7km/h 8mph /  12.9km/h 80% 0in /  0.0mm 364 W/m2
11:09 41 °F /  5 °C 35.1 °F /  1.7 °C 30.1in /  1019.6hPa WNW 4mph /  6.4km/h 9mph /  14.5km/h 79% 0in /  0.0mm 352 W/m2
11:14 41.2 °F /  5.1 °C 35.4 °F /  1.9 °C 30.1in /  1019.6hPa NW 0.9mph /  1.4km/h 3mph /  4.8km/h 80% 0in /  0.0mm 383 W/m2
11:19 41.5 °F /  5.3 °C 35.8 °F /  2.1 °C 30.1in /  1019.6hPa South 2mph /  3.2km/h 8mph /  12.9km/h 80% 0in /  0.0mm 408 W/m2
11:24 42.1 °F /  5.6 °C 36 °F /  2.2 °C 30.1in /  1019.6hPa North 2mph /  3.2km/h 2mph /  3.2km/h 79% 0in /  0.0mm 362 W/m2
11:29 42.4 °F /  5.8 °C 36.1 °F /  2.3 °C 30.1in /  1019.6hPa West 2mph /  3.2km/h 2mph /  3.2km/h 78% 0in /  0.0mm 350 W/m2
11:34 43 °F /  6.1 °C 35.6 °F /  2 °C 30.1in /  1019.6hPa WNW 2mph /  3.2km/h 6mph /  9.7km/h 75% 0in /  0.0mm 269 W/m2
11:39 43 °F /  6.1 °C 35.6 °F /  2 °C 30.1in /  1019.6hPa East 4mph /  6.4km/h 11mph /  17.7km/h 75% 0in /  0.0mm 221 W/m2
11:44 43.2 °F /  6.2 °C 35.8 °F /  2.1 °C 30.1in /  1019.3hPa NNW 0.9mph /  1.4km/h 3mph /  4.8km/h 75% 0in /  0.0mm 264 W/m2
11:49 43.2 °F /  6.2 °C 34.7 °F /  1.5 °C 30.1in /  1019.3hPa South 0.9mph /  1.4km/h 11mph /  17.7km/h 72% 0in /  0.0mm 237 W/m2
11:54 43.3 °F /  6.3 °C 34.9 °F /  1.6 °C 30.1in /  1019.3hPa SE 2mph /  3.2km/h 4mph /  6.4km/h 72% 0in /  0.0mm 376 W/m2
11:59 43.7 °F /  6.5 °C 34.9 °F /  1.6 °C 30.1in /  1019.3hPa NW 4mph /  6.4km/h 8mph /  12.9km/h 71% 0in /  0.0mm 359 W/m2
12:04 43.9 °F /  6.6 °C 34.3 °F /  1.3 °C 30.1in /  1019.3hPa North 4.9mph /  7.9km/h 5mph /  8km/h 69% 0.01in /  0.2mm 359 W/m2
12:09 44.1 °F /  6.7 °C 34.5 °F /  1.4 °C 30.1in /  1019.3hPa NW 2.9mph /  4.7km/h 9mph /  14.5km/h 69% 0.01in /  0.2mm 443 W/m2
12:14 44.1 °F /  6.7 °C 34.2 °F /  1.2 °C 30.1in /  1019.3hPa ESE 6mph /  9.7km/h 9mph /  14.5km/h 68% 0.01in /  0.2mm 457 W/m2
12:19 44.6 °F /  7 °C 34.3 °F /  1.3 °C 30.1in /  1019.3hPa Calm   10mph /  16.1km/h 67% 0.01in /  0.2mm 406 W/m2
12:24 44.8 °F /  7.1 °C 34.2 °F /  1.2 °C 30.1in /  1019.0hPa WNW 2.9mph /  4.7km/h 7mph /  11.3km/h 66% 0.01in /  0.2mm 381 W/m2
12:29 45 °F /  7.2 °C 34.3 °F /  1.3 °C 30.1in /  1019.0hPa NW 6.9mph /  11.1km/h 11mph /  17.7km/h 66% 0.01in /  0.2mm 450 W/m2
12:34 45.1 °F /  7.3 °C 34.2 °F /  1.2 °C 30.1in /  1019.0hPa NW 0.9mph /  1.4km/h 5mph /  8km/h 65% 0.01in /  0.2mm 494 W/m2
12:39 45.1 °F /  7.3 °C 34.2 °F /  1.2 °C 30.1in /  1019.0hPa North 0.9mph /  1.4km/h 8mph /  12.9km/h 65% 0.01in /  0.2mm 519 W/m2
12:44 45.3 °F /  7.4 °C 34.3 °F /  1.3 °C 30.1in /  1018.6hPa NW 0.9mph /  1.4km/h 5mph /  8km/h 65% 0.01in /  0.2mm 504 W/m2
12:49 45.7 °F /  7.6 °C 34.5 °F /  1.4 °C 30.1in /  1018.6hPa NW 4.9mph /  7.9km/h 5mph /  8km/h 65% 0.01in /  0.2mm 490 W/m2
12:54 45.9 °F /  7.7 °C 34 °F /  1.1 °C 30.1in /  1018.6hPa West 6mph /  9.7km/h 8mph /  12.9km/h 63% 0.01in /  0.2mm 483 W/m2
12:59 45.7 °F /  7.6 °C 33.8 °F /  1 °C 30.1in /  1018.3hPa WNW 8.9mph /  14.3km/h 9mph /  14.5km/h 63% 0.01in /  0.2mm 480 W/m2
13:04 45.9 °F /  7.7 °C 34.3 °F /  1.3 °C 30.1in /  1018.3hPa NNW 0.9mph /  1.4km/h 3mph /  4.8km/h 64% 0in /  0.0mm 478 W/m2
13:09 45.9 °F /  7.7 °C 34 °F /  1.1 °C 30.1in /  1018.0hPa WNW 2.9mph /  4.7km/h 4mph /  6.4km/h 63% 0in /  0.0mm 454 W/m2
13:15 45.9 °F /  7.7 °C 33.6 °F /  0.9 °C 30.1in /  1018.0hPa NNE 2.9mph /  4.7km/h 8mph /  12.9km/h 62% 0in /  0.0mm 399 W/m2
13:20 46 °F /  7.8 °C 33.3 °F /  0.7 °C 30.1in /  1018.0hPa Calm   4mph /  6.4km/h 61% 0in /  0.0mm 267 W/m2
13:25 46.2 °F /  7.9 °C 34 °F /  1.1 °C 30.1in /  1017.6hPa ENE 2.9mph /  4.7km/h 5mph /  8km/h 62% 0in /  0.0mm 295 W/m2
13:30 46.8 °F /  8.2 °C 34.9 °F /  1.6 °C 30in /  1017.3hPa WNW 6mph /  9.7km/h 7mph /  11.3km/h 63% 0in /  0.0mm 251 W/m2
13:35 46.8 °F /  8.2 °C 33.6 °F /  0.9 °C 30in /  1017.3hPa West 0.9mph /  1.4km/h 11mph /  17.7km/h 60% 0in /  0.0mm 304 W/m2
13:40 46.6 °F /  8.1 °C 34.3 °F /  1.3 °C 30in /  1017.3hPa WNW 6.9mph /  11.1km/h 11mph /  17.7km/h 62% 0in /  0.0mm 292 W/m2
13:45 46.6 °F /  8.1 °C 35.4 °F /  1.9 °C 30in /  1017.3hPa West 4mph /  6.4km/h 4mph /  6.4km/h 65% 0in /  0.0mm 332 W/m2
13:50 46.8 °F /  8.2 °C 35.6 °F /  2 °C 30in /  1017.3hPa West 2.9mph /  4.7km/h 11mph /  17.7km/h 65% 0in /  0.0mm 343 W/m2
13:55 46.8 °F /  8.2 °C 35.6 °F /  2 °C 30in /  1016.9hPa East 8.9mph /  14.3km/h 9mph /  14.5km/h 65% 0in /  0.0mm 374 W/m2
14:00 46.8 °F /  8.2 °C 35.2 °F /  1.8 °C 30in /  1016.9hPa West 2.9mph /  4.7km/h 9mph /  14.5km/h 64% 0in /  0.0mm 336 W/m2
14:05 46.9 °F /  8.3 °C 35.1 °F /  1.7 °C 30in /  1016.9hPa WNW 6.9mph /  11.1km/h 8mph /  12.9km/h 63% 0in /  0.0mm 311 W/m2
14:10 46.9 °F /  8.3 °C 34.5 °F /  1.4 °C 30in /  1016.6hPa NW 2.9mph /  4.7km/h 9mph /  14.5km/h 62% 0in /  0.0mm 304 W/m2
14:15 47.1 °F /  8.4 °C 34.3 °F /  1.3 °C 30in /  1016.6hPa WNW 4mph /  6.4km/h 7mph /  11.3km/h 61% 0in /  0.0mm 279 W/m2
14:20 47.1 °F /  8.4 °C 34.7 °F /  1.5 °C 30in /  1016.3hPa Calm   3mph /  4.8km/h 62% 0in /  0.0mm 311 W/m2
14:25 47.5 °F /  8.6 °C 35.1 °F /  1.7 °C 30in /  1016.6hPa NW 2mph /  3.2km/h 6mph /  9.7km/h 62% 0in /  0.0mm 258 W/m2
14:30 47.3 °F /  8.5 °C 33.6 °F /  0.9 °C 30in /  1016.3hPa ESE 4mph /  6.4km/h 12mph /  19.3km/h 59% 0in /  0.0mm 211 W/m2
14:35 46.9 °F /  8.3 °C 32.9 °F /  0.5 °C 30in /  1016.3hPa NW 2.9mph /  4.7km/h 11mph /  17.7km/h 58% 0in /  0.0mm 225 W/m2
14:40 46.8 °F /  8.2 °C 33.6 °F /  0.9 °C 30in /  1016.3hPa NNW 2mph /  3.2km/h 12mph /  19.3km/h 60% 0in /  0.0mm 200 W/m2
14:45 46.9 °F /  8.3 °C 33.8 °F /  1 °C 30in /  1015.9hPa WNW 2.9mph /  4.7km/h 4mph /  6.4km/h 60% 0in /  0.0mm 188 W/m2
14:50 46.8 °F /  8.2 °C 33.3 °F /  0.7 °C 30in /  1015.9hPa ENE 0.9mph /  1.4km/h 4mph /  6.4km/h 59% 0in /  0.0mm 181 W/m2
14:55 46.8 °F /  8.2 °C 33.6 °F /  0.9 °C 30in /  1015.9hPa SE 0.9mph /  1.4km/h 4mph /  6.4km/h 60% 0in /  0.0mm 153 W/m2
15:00 46.6 °F /  8.1 °C 33.4 °F /  0.8 °C 30in /  1016.3hPa ESE 4mph /  6.4km/h 4mph /  6.4km/h 60% 0in /  0.0mm 137 W/m2
15:05 46.6 °F /  8.1 °C 33.1 °F /  0.6 °C 30in /  1015.9hPa SSW 0.9mph /  1.4km/h 6mph /  9.7km/h 59% 0in /  0.0mm 135 W/m2
15:10 46.6 °F /  8.1 °C 33.1 °F /  0.6 °C 30in /  1015.9hPa NNW 0.9mph /  1.4km/h 3mph /  4.8km/h 59% 0in /  0.0mm 125 W/m2
15:15 46.4 °F /  8 °C 33.3 °F /  0.7 °C 30in /  1015.6hPa North 0.9mph /  1.4km/h 3mph /  4.8km/h 60% 0in /  0.0mm 130 W/m2
15:20 46.4 °F /  8 °C 32.9 °F /  0.5 °C 30in /  1015.6hPa SSE 0.9mph /  1.4km/h 4mph /  6.4km/h 59% 0in /  0.0mm 156 W/m2
15:25 46.6 °F /  8.1 °C 33.8 °F /  1 °C 30in /  1015.6hPa NNE 2mph /  3.2km/h 3mph /  4.8km/h 61% 0in /  0.0mm 185 W/m2
15:30 46.8 °F /  8.2 °C 34.5 °F /  1.4 °C 30in /  1015.6hPa East 2mph /  3.2km/h 4mph /  6.4km/h 62% 0in /  0.0mm 246 W/m2
15:35 46.9 °F /  8.3 °C 33.8 °F /  1 °C 30in /  1015.6hPa ESE 2.9mph /  4.7km/h 3mph /  4.8km/h 60% 0in /  0.0mm 227 W/m2
15:40 47.1 °F /  8.4 °C 34 °F /  1.1 °C 30in /  1015.2hPa NE 2mph /  3.2km/h 3mph /  4.8km/h 60% 0in /  0.0mm 179 W/m2
15:45 47.1 °F /  8.4 °C 34.3 °F /  1.3 °C 30in /  1015.2hPa NW 0.9mph /  1.4km/h 3mph /  4.8km/h 61% 0in /  0.0mm 197 W/m2
15:51 47.3 °F /  8.5 °C 34.2 °F /  1.2 °C 30in /  1015.2hPa NNE 4mph /  6.4km/h 5mph /  8km/h 60% 0in /  0.0mm 181 W/m2
Juneau County Weather
Compliments of Weather Underground - 4 mb